CheckWX is a tool to help pilots better visualize weather data.  It is not intended as a substitute for an official pre-flight weather briefing.

14:50:48 UTC

FQCH TAF
Chimoio Airport
Chimoio, Mozambique
TAF FQCH 231000Z 2312/2412 16012KT 9999 BKN015 FEW020CB TX26/2313Z TN20/2403Z PROB30 TEMPO 2312/2318 5000 TSRA BKN018 BECMG 2318/2320 23006KT BECMG 2406/2408 03010KT

Mar-23@
12:00 UTC

Mar-23 @ 12:00 UTC

Mar-23@
18:00 UTC

Mar-23 @ 18:00 UTC

TAF FQCH 231000Z 2312/2412 16012KT 9999 BKN015 FEW020CB TX26/2313Z TN20/2403Z
Wind
  • 160° at 12 KTS
Cloud Levels
  • Broken at 1,500' AGL
  • Few at 2,000' AGL

Mar-23@
12:00 UTC

Mar-23 @ 12:00 UTC

Mar-23@
18:00 UTC

Mar-23 @ 18:00 UTC

PROB30 TEMPO 2312/2318 5000 TSRA BKN018

Temporary - 30% Likelihood

Temporary - 30% Likelihood during this time.

Conditions
Thunderstorm, Rain
Cloud Levels
  • Broken at 1,800' AGL

Mar-23@
18:00 UTC

Mar-23 @ 18:00 UTC

Mar-24@
06:00 UTC

Mar-24 @ 06:00 UTC

BECMG 2318/2320 23006KT

Becoming

Becoming Conditions expected by Sat, Mar 23, 2019 @ 20:00 UTC

Wind
  • 230° at 6 KTS
Cloud Levels
  • Broken at 1,500' AGL
  • Few at 2,000' AGL

Mar-24@
06:00 UTC

Mar-24 @ 06:00 UTC

Mar-24@
12:00 UTC

Mar-24 @ 12:00 UTC

BECMG 2406/2408 03010KT

Becoming

Becoming Conditions expected by Sun, Mar 24, 2019 @ 08:00 UTC

Wind
  • 030° at 10 KTS
Cloud Levels
  • Broken at 1,500' AGL
  • Few at 2,000' AGL